Time;durP1;ratioP1;P1;durP2;ratioP2;P2;SDS_P1;SDS_P2;PMS_P1;PMS_P2;Temp;Humidity;BMP_temperature;BMP_pressure;BME280_temperature;BME280_humidity;BME280_pressure;Samples;Min_cycle;Max_cycle;Signal;HPM_P1;HPM_P2
2023/01/30 00:01:20;;;;;;;;;29.00;25.75;;;;;;;;4882812;29;45329;-75
2023/01/30 00:03:45;;;;;;;;;29.75;25.75;;;;;;;;4888376;29;45399;-75
2023/01/30 00:06:11;;;;;;;;;31.00;26.75;;;;;;;;4888064;28;45423;-76
2023/01/30 00:08:36;;;;;;;;;24.75;24.75;;;;;;;;4882045;29;45898;-76
2023/01/30 00:11:05;;;;;;;;;17.00;14.25;;;;;;;;4882662;29;45527;-76
2023/01/30 00:13:30;;;;;;;;;35.25;31.00;;;;;;;;4882821;29;45418;-75
2023/01/30 00:15:55;;;;;;;;;34.25;27.25;;;;;;;;4881239;29;45431;-76
2023/01/30 00:18:21;;;;;;;;;28.00;24.75;;;;;;;;4882709;29;45356;-76
2023/01/30 00:20:46;;;;;;;;;27.75;24.25;;;;;;;;4883406;29;45390;-75
2023/01/30 00:23:11;;;;;;;;;34.25;32.00;;;;;;;;4883119;29;45899;-76
2023/01/30 00:25:36;;;;;;;;;33.75;24.75;;;;;;;;4882542;28;45369;-75
2023/01/30 00:28:01;;;;;;;;;29.50;25.00;;;;;;;;4881384;28;45433;-75
2023/01/30 00:30:27;;;;;;;;;21.25;18.75;;;;;;;;4891574;29;45376;-75
2023/01/30 00:32:56;;;;;;;;;20.50;20.50;;;;;;;;4885866;28;45390;-75
2023/01/30 00:35:27;;;;;;;;;32.75;28.50;;;;;;;;4901167;28;45331;-75
2023/01/30 00:37:52;;;;;;;;;33.50;29.00;;;;;;;;4901029;28;45567;-75
2023/01/30 00:40:17;;;;;;;;;25.25;22.50;;;;;;;;4900499;29;45394;-76
2023/01/30 00:48:10;;;;;;;;;30.00;29.00;;;;;;;;4901009;29;45890;-76
2023/01/30 00:50:41;;;;;;;;;25.75;21.75;;;;;;;;4900843;28;45460;-77
2023/01/30 00:53:08;;;;;;;;;29.25;29.25;;;;;;;;4915330;28;45468;-76
2023/01/30 00:55:33;;;;;;;;;27.25;24.00;;;;;;;;4914609;28;45465;-75
2023/01/30 00:57:58;;;;;;;;;24.75;23.50;;;;;;;;4895941;29;47456;-76
2023/01/30 01:00:23;;;;;;;;;41.25;27.50;;;;;;;;4899171;29;45329;-76
2023/01/30 01:02:49;;;;;;;;;22.00;22.00;;;;;;;;4900312;28;45349;-74
2023/01/30 01:05:14;;;;;;;;;27.75;23.75;;;;;;;;4900546;28;45654;-77
2023/01/30 01:07:39;;;;;;;;;27.00;26.75;;;;;;;;4899983;28;45471;-76
2023/01/30 01:10:05;;;;;;;;;24.75;23.75;;;;;;;;4900785;28;45309;-77
2023/01/30 01:12:30;;;;;;;;;29.25;24.25;;;;;;;;4900483;28;45476;-77
2023/01/30 01:14:55;;;;;;;;;28.50;25.50;;;;;;;;4900462;28;45399;-77
2023/01/30 01:17:20;;;;;;;;;28.25;25.75;;;;;;;;4900488;28;45909;-77
2023/01/30 01:19:45;;;;;;;;;36.00;26.00;;;;;;;;4900271;28;45422;-76
2023/01/30 01:22:11;;;;;;;;;28.75;25.75;;;;;;;;4899433;28;45402;-76
2023/01/30 01:24:36;;;;;;;;;29.00;26.50;;;;;;;;4900861;28;45340;-76
2023/01/30 01:27:01;;;;;;;;;25.75;24.00;;;;;;;;4900198;28;46153;-76
2023/01/30 01:29:26;;;;;;;;;22.75;21.25;;;;;;;;4900706;28;45287;-76
2023/01/30 01:31:51;;;;;;;;;32.00;29.00;;;;;;;;4900477;28;45299;-76
2023/01/30 01:34:17;;;;;;;;;28.50;27.00;;;;;;;;4900664;28;45267;-76
2023/01/30 01:36:42;;;;;;;;;32.50;26.25;;;;;;;;4900108;28;46406;-76
2023/01/30 01:39:07;;;;;;;;;26.50;24.75;;;;;;;;4898587;29;45466;-77
2023/01/30 01:41:32;;;;;;;;;23.00;21.00;;;;;;;;4900429;28;45807;-76
2023/01/30 01:44:03;;;;;;;;;23.00;23.00;;;;;;;;4900479;28;45315;-76
2023/01/30 01:46:41;;;;;;;;;21.75;20.25;;;;;;;;4900205;28;46382;-76
2023/01/30 01:49:12;;;;;;;;;26.25;22.75;;;;;;;;4898876;29;45316;-76
2023/01/30 01:51:41;;;;;;;;;31.00;27.00;;;;;;;;4902377;28;45327;-75
2023/01/30 01:54:26;;;;;;;;;24.50;20.75;;;;;;;;4919155;28;45390;-75
2023/01/30 01:56:52;;;;;;;;;18.50;14.50;;;;;;;;4917366;28;46253;-74
2023/01/30 01:59:27;;;;;;;;;24.75;21.00;;;;;;;;4918412;28;45394;-75
2023/01/30 02:01:54;;;;;;;;;31.00;29.25;;;;;;;;4919126;28;45386;-76
2023/01/30 02:05:00;;;;;;;;;26.50;21.00;;;;;;;;4918475;28;45382;-74
2023/01/30 02:07:05;;;;;;;;;23.00;21.25;;;;;;;;4918075;28;45800;-77
2023/01/30 02:09:30;;;;;;;;;32.25;25.50;;;;;;;;4919182;28;45420;-74
2023/01/30 02:11:59;;;;;;;;;25.00;23.25;;;;;;;;4918940;28;45322;-77
2023/01/30 02:14:25;;;;;;;;;30.25;27.00;;;;;;;;4918777;28;45228;-76
2023/01/30 02:16:50;;;;;;;;;26.00;20.00;;;;;;;;4918707;28;45969;-76
2023/01/30 02:19:21;;;;;;;;;25.25;23.00;;;;;;;;4917592;28;45653;-76
2023/01/30 02:21:46;;;;;;;;;25.25;21.00;;;;;;;;4918912;28;45365;-74
2023/01/30 02:24:24;;;;;;;;;30.25;23.00;;;;;;;;4917652;28;45280;-76
2023/01/30 02:26:55;;;;;;;;;23.75;22.00;;;;;;;;4917271;28;46277;-76
2023/01/30 02:29:39;;;;;;;;;21.75;16.00;;;;;;;;4917281;28;46153;-76
2023/01/30 02:32:16;;;;;;;;;22.75;21.75;;;;;;;;4918650;28;45366;-76
2023/01/30 02:34:53;;;;;;;;;27.25;23.50;;;;;;;;4918426;28;45270;-76
2023/01/30 02:37:28;;;;;;;;;22.50;20.50;;;;;;;;4918551;28;46498;-76
2023/01/30 02:40:02;;;;;;;;;24.00;21.75;;;;;;;;4918121;28;45438;-77
2023/01/30 02:42:56;;;;;;;;;24.00;22.25;;;;;;;;4918206;28;45458;-77
2023/01/30 02:45:25;;;;;;;;;18.00;18.00;;;;;;;;4896950;29;45356;-77
2023/01/30 02:47:59;;;;;;;;;30.50;26.25;;;;;;;;4896677;29;45480;-76
2023/01/30 02:50:28;;;;;;;;;28.25;23.50;;;;;;;;4896933;29;45434;-77
2023/01/30 02:52:53;;;;;;;;;23.50;21.00;;;;;;;;4896878;29;45499;-77
2023/01/30 02:55:25;;;;;;;;;25.25;20.75;;;;;;;;4896668;29;45424;-76
2023/01/30 02:57:50;;;;;;;;;21.75;19.75;;;;;;;;4896314;29;45453;-77
2023/01/30 03:00:21;;;;;;;;;25.00;20.00;;;;;;;;4896716;29;45558;-77
2023/01/30 03:03:05;;;;;;;;;20.25;18.25;;;;;;;;4897054;29;45526;-77
2023/01/30 03:05:40;;;;;;;;;22.25;18.75;;;;;;;;4896682;29;45568;-77
2023/01/30 03:08:11;;;;;;;;;23.00;19.25;;;;;;;;4896027;29;45505;-76
2023/01/30 03:10:41;;;;;;;;;24.50;24.50;;;;;;;;4885755;29;45379;-77
2023/01/30 03:13:09;;;;;;;;;21.50;18.50;;;;;;;;4877332;29;45516;-76
2023/01/30 03:15:40;;;;;;;;;23.50;22.50;;;;;;;;4877657;29;45433;-77
2023/01/30 03:18:06;;;;;;;;;22.00;18.50;;;;;;;;4877491;29;46059;-77
2023/01/30 03:20:35;;;;;;;;;31.25;26.25;;;;;;;;4877762;29;45413;-76
2023/01/30 03:23:00;;;;;;;;;25.25;22.25;;;;;;;;4898917;28;45414;-77
2023/01/30 03:25:25;;;;;;;;;30.25;25.50;;;;;;;;4899335;28;45398;-77
2023/01/30 03:27:52;;;;;;;;;18.25;18.25;;;;;;;;4898854;29;45371;-77
2023/01/30 03:30:17;;;;;;;;;13.50;12.25;;;;;;;;4899820;28;45418;-77
2023/01/30 03:32:43;;;;;;;;;23.75;22.50;;;;;;;;4902931;28;45413;-77
2023/01/30 03:35:08;;;;;;;;;31.25;24.00;;;;;;;;4897060;29;45375;-76
2023/01/30 03:37:34;;;;;;;;;22.00;22.00;;;;;;;;4884932;28;46243;-76
2023/01/30 03:39:59;;;;;;;;;20.50;19.75;;;;;;;;4883129;29;45347;-77
2023/01/30 03:42:24;;;;;;;;;21.50;18.50;;;;;;;;4883243;29;45458;-76
2023/01/30 03:44:50;;;;;;;;;26.50;19.25;;;;;;;;4882813;29;45426;-77
2023/01/30 03:47:15;;;;;;;;;28.25;24.50;;;;;;;;4883164;29;46782;-77
2023/01/30 03:49:40;;;;;;;;;25.00;22.75;;;;;;;;4883163;29;45423;-77
2023/01/30 03:52:05;;;;;;;;;21.75;21.00;;;;;;;;4894428;28;45296;-76
2023/01/30 03:54:30;;;;;;;;;26.50;20.50;;;;;;;;4920329;28;45290;-76
2023/01/30 03:56:56;;;;;;;;;26.50;23.50;;;;;;;;4920331;28;45539;-77
2023/01/30 03:59:21;;;;;;;;;24.50;20.75;;;;;;;;4920470;28;45521;-77
2023/01/30 04:01:46;;;;;;;;;26.00;24.00;;;;;;;;4920636;28;45469;-76
2023/01/30 04:04:11;;;;;;;;;24.75;21.25;;;;;;;;4920615;28;45444;-76
2023/01/30 04:06:36;;;;;;;;;24.00;23.00;;;;;;;;4919486;28;46084;-76
2023/01/30 04:09:02;;;;;;;;;22.00;20.25;;;;;;;;4920304;28;45265;-76
2023/01/30 04:11:27;;;;;;;;;30.50;25.50;;;;;;;;4920403;28;45696;-76
2023/01/30 04:13:52;;;;;;;;;22.00;20.25;;;;;;;;4920708;28;45509;-76
2023/01/30 04:16:19;;;;;;;;;26.00;22.50;;;;;;;;4920125;28;46317;-76
2023/01/30 04:18:44;;;;;;;;;32.50;25.75;;;;;;;;4920317;28;45483;-76
2023/01/30 04:21:09;;;;;;;;;31.50;24.50;;;;;;;;4920319;28;45350;-76
2023/01/30 04:23:35;;;;;;;;;22.75;19.25;;;;;;;;4920399;28;45387;-76
2023/01/30 04:26:00;;;;;;;;;28.00;23.00;;;;;;;;4920195;28;47019;-77
2023/01/30 04:28:25;;;;;;;;;24.00;19.75;;;;;;;;4920334;28;45592;-75
2023/01/30 04:30:53;;;;;;;;;30.00;24.25;;;;;;;;4920079;28;45422;-76
2023/01/30 04:33:18;;;;;;;;;24.50;22.00;;;;;;;;4920588;28;45580;-77
2023/01/30 04:35:53;;;;;;;;;19.25;19.00;;;;;;;;4919935;28;46261;-76
2023/01/30 04:38:19;;;;;;;;;25.00;22.00;;;;;;;;4919911;28;45539;-77
2023/01/30 04:40:48;;;;;;;;;23.50;19.25;;;;;;;;4919904;28;45411;-77
2023/01/30 04:43:13;;;;;;;;;29.00;24.75;;;;;;;;4919413;28;45444;-77
2023/01/30 04:45:41;;;;;;;;;24.00;22.75;;;;;;;;4919081;28;46235;-76
2023/01/30 04:48:07;;;;;;;;;29.50;22.00;;;;;;;;4920218;28;45378;-77
2023/01/30 04:50:32;;;;;;;;;23.75;20.50;;;;;;;;4920379;28;45338;-76
2023/01/30 04:52:57;;;;;;;;;22.00;20.50;;;;;;;;4919710;28;45325;-76
2023/01/30 04:55:22;;;;;;;;;29.75;22.25;;;;;;;;4919269;28;46393;-77
2023/01/30 04:57:47;;;;;;;;;20.50;20.50;;;;;;;;4919029;28;45360;-74
2023/01/30 05:00:13;;;;;;;;;25.00;18.75;;;;;;;;4918902;28;45402;-76
2023/01/30 05:02:38;;;;;;;;;24.50;21.75;;;;;;;;4918689;28;45462;-76
2023/01/30 05:05:03;;;;;;;;;19.75;19.25;;;;;;;;4918395;28;46258;-74
2023/01/30 05:07:28;;;;;;;;;19.50;19.25;;;;;;;;4918642;28;45442;-74
2023/01/30 05:09:54;;;;;;;;;22.50;18.25;;;;;;;;4920274;28;45461;-74
2023/01/30 05:12:19;;;;;;;;;21.75;19.75;;;;;;;;4919796;28;45368;-75
2023/01/30 05:14:45;;;;;;;;;23.25;18.00;;;;;;;;4919746;28;46176;-75
2023/01/30 05:17:10;;;;;;;;;23.50;19.00;;;;;;;;4919860;28;45359;-75
2023/01/30 05:19:35;;;;;;;;;23.25;19.75;;;;;;;;4919465;28;45266;-75
2023/01/30 05:22:01;;;;;;;;;25.25;19.25;;;;;;;;4919563;28;45215;-75
2023/01/30 05:24:26;;;;;;;;;20.75;19.00;;;;;;;;4919557;28;45277;-76
2023/01/30 05:26:51;;;;;;;;;16.25;15.50;;;;;;;;4918845;28;45453;-74
2023/01/30 05:29:16;;;;;;;;;19.75;18.00;;;;;;;;4918997;28;45318;-75
2023/01/30 05:31:42;;;;;;;;;21.25;17.25;;;;;;;;4900296;28;45332;-75
2023/01/30 05:34:09;;;;;;;;;23.75;19.75;;;;;;;;4885300;29;46024;-76
2023/01/30 05:36:34;;;;;;;;;25.50;23.00;;;;;;;;4881390;29;45304;-75
2023/01/30 05:39:00;;;;;;;;;21.75;19.00;;;;;;;;4881374;29;45315;-74
2023/01/30 05:41:25;;;;;;;;;19.75;19.00;;;;;;;;4881793;29;45285;-75
2023/01/30 05:43:50;;;;;;;;;26.00;21.50;;;;;;;;4879818;29;48484;-74
2023/01/30 05:46:15;;;;;;;;;17.50;17.50;;;;;;;;4895307;28;45537;-75
2023/01/30 05:48:40;;;;;;;;;12.00;9.00;;;;;;;;4891641;29;45516;-75
2023/01/30 05:51:06;;;;;;;;;20.75;19.00;;;;;;;;4889558;28;45753;-75
2023/01/30 05:53:33;;;;;;;;;25.75;24.00;;;;;;;;4890829;28;45438;-75
2023/01/30 05:56:03;;;;;;;;;22.75;18.50;;;;;;;;4897026;28;45361;-76
2023/01/30 05:58:28;;;;;;;;;24.75;20.50;;;;;;;;4889252;29;45375;-76
2023/01/30 06:00:54;;;;;;;;;23.25;19.75;;;;;;;;4882211;29;45614;-76
2023/01/30 06:03:19;;;;;;;;;21.00;17.25;;;;;;;;4892584;28;46961;-76
2023/01/30 06:05:44;;;;;;;;;20.50;18.50;;;;;;;;4899736;28;45280;-75
2023/01/30 06:08:10;;;;;;;;;18.25;18.00;;;;;;;;4899222;28;45301;-76
2023/01/30 06:10:35;;;;;;;;;20.25;17.75;;;;;;;;4890415;28;45516;-76
2023/01/30 06:13:01;;;;;;;;;18.75;18.75;;;;;;;;4891151;28;46222;-76
2023/01/30 06:15:26;;;;;;;;;18.75;17.25;;;;;;;;4899332;28;45371;-75
2023/01/30 06:17:51;;;;;;;;;19.50;18.00;;;;;;;;4899558;28;45361;-76
2023/01/30 06:20:17;;;;;;;;;20.75;18.75;;;;;;;;4899808;28;45336;-75
2023/01/30 06:22:42;;;;;;;;;18.75;15.25;;;;;;;;4893342;28;47275;-75
2023/01/30 06:25:08;;;;;;;;;21.00;15.75;;;;;;;;4896515;28;45451;-76
2023/01/30 06:27:33;;;;;;;;;19.75;17.50;;;;;;;;4906394;28;45413;-76
2023/01/30 06:29:58;;;;;;;;;20.50;17.75;;;;;;;;4907525;28;45397;-77
2023/01/30 06:32:23;;;;;;;;;20.50;16.25;;;;;;;;4918099;28;45504;-76
2023/01/30 06:34:49;;;;;;;;;23.00;21.50;;;;;;;;4917291;28;45352;-76
2023/01/30 06:37:14;;;;;;;;;25.50;19.75;;;;;;;;4918514;28;45310;-76
2023/01/30 06:39:39;;;;;;;;;23.25;21.75;;;;;;;;4918732;28;45372;-77
2023/01/30 06:42:06;;;;;;;;;20.75;20.25;;;;;;;;4917995;28;45435;-78
2023/01/30 06:44:31;;;;;;;;;19.25;16.50;;;;;;;;4918694;28;45311;-80
2023/01/30 06:46:56;;;;;;;;;23.50;20.25;;;;;;;;4918335;28;45274;-76
2023/01/30 06:49:21;;;;;;;;;18.25;14.00;;;;;;;;4919080;28;45286;-77
2023/01/30 06:51:46;;;;;;;;;24.25;18.25;;;;;;;;4918591;28;45384;-76
2023/01/30 06:54:12;;;;;;;;;27.00;20.75;;;;;;;;4918454;28;45210;-76
2023/01/30 06:56:37;;;;;;;;;18.25;17.25;;;;;;;;4917901;28;45278;-76
2023/01/30 06:59:02;;;;;;;;;19.25;15.50;;;;;;;;4918001;28;45329;-76
2023/01/30 07:01:27;;;;;;;;;27.00;20.50;;;;;;;;4917688;28;45416;-76
2023/01/30 07:03:52;;;;;;;;;22.50;18.25;;;;;;;;4918087;28;45264;-76
2023/01/30 07:06:18;;;;;;;;;6.50;4.75;;;;;;;;4917491;28;45286;-76
2023/01/30 07:08:44;;;;;;;;;18.25;15.00;;;;;;;;4918379;28;45378;-76
2023/01/30 07:11:09;;;;;;;;;16.75;15.00;;;;;;;;4917823;28;46083;-76
2023/01/30 07:13:34;;;;;;;;;20.75;19.25;;;;;;;;4917780;28;45259;-76
2023/01/30 07:15:59;;;;;;;;;20.25;19.00;;;;;;;;4916696;28;45342;-76
2023/01/30 07:18:24;;;;;;;;;17.75;17.00;;;;;;;;4918172;28;45248;-77
2023/01/30 07:20:50;;;;;;;;;21.50;20.00;;;;;;;;4917714;28;45192;-76
2023/01/30 07:23:15;;;;;;;;;16.00;15.00;;;;;;;;4918057;28;45389;-76
2023/01/30 07:25:40;;;;;;;;;20.50;19.25;;;;;;;;4918030;28;45721;-75
2023/01/30 07:28:06;;;;;;;;;21.75;18.25;;;;;;;;4917907;28;45362;-75
2023/01/30 07:30:32;;;;;;;;;22.25;18.75;;;;;;;;4917370;28;46376;-75
2023/01/30 07:32:58;;;;;;;;;10.50;10.00;;;;;;;;4917758;28;45354;-75
2023/01/30 07:35:24;;;;;;;;;14.00;9.50;;;;;;;;4917827;28;45397;-76
2023/01/30 07:37:50;;;;;;;;;20.50;19.00;;;;;;;;4917849;28;45470;-76
2023/01/30 07:40:15;;;;;;;;;22.25;20.25;;;;;;;;4917251;28;46405;-75
2023/01/30 07:42:41;;;;;;;;;15.00;14.50;;;;;;;;4917510;28;45387;-75
2023/01/30 07:45:06;;;;;;;;;18.50;16.25;;;;;;;;4916955;28;45382;-76
2023/01/30 07:47:32;;;;;;;;;20.00;18.25;;;;;;;;4917309;28;45633;-75
2023/01/30 07:49:57;;;;;;;;;21.75;19.00;;;;;;;;4917005;28;45326;-75
2023/01/30 07:52:22;;;;;;;;;11.50;9.00;;;;;;;;4916800;28;45365;-77
2023/01/30 07:54:47;;;;;;;;;18.50;17.50;;;;;;;;4917305;28;45446;-76
2023/01/30 07:57:12;;;;;;;;;25.00;22.00;;;;;;;;4917118;28;45314;-77
2023/01/30 07:59:38;;;;;;;;;23.00;20.25;;;;;;;;4916867;28;45432;-76
2023/01/30 08:02:03;;;;;;;;;24.75;17.75;;;;;;;;4917332;28;45329;-76
2023/01/30 08:04:28;;;;;;;;;21.50;18.75;;;;;;;;4917521;28;45310;-75
2023/01/30 08:06:53;;;;;;;;;20.50;18.00;;;;;;;;4917310;28;45520;-76
2023/01/30 08:09:19;;;;;;;;;25.75;20.75;;;;;;;;4917636;28;45569;-75
2023/01/30 08:11:44;;;;;;;;;21.00;21.00;;;;;;;;4917233;28;45358;-77
2023/01/30 08:14:09;;;;;;;;;19.25;17.00;;;;;;;;4916936;28;45417;-76
2023/01/30 08:16:35;;;;;;;;;20.25;19.00;;;;;;;;4919154;28;45345;-75
2023/01/30 08:19:02;;;;;;;;;22.75;21.50;;;;;;;;4920242;28;47292;-75
2023/01/30 08:21:28;;;;;;;;;21.25;16.25;;;;;;;;4919153;28;45390;-75
2023/01/30 08:23:53;;;;;;;;;17.50;16.25;;;;;;;;4920424;28;45291;-76
2023/01/30 08:26:18;;;;;;;;;17.25;15.00;;;;;;;;4920283;28;45378;-75
2023/01/30 08:28:43;;;;;;;;;17.50;17.50;;;;;;;;4906907;28;46436;-75
2023/01/30 08:31:09;;;;;;;;;18.50;17.25;;;;;;;;4892599;28;45487;-76
2023/01/30 08:33:34;;;;;;;;;22.25;20.75;;;;;;;;4897595;28;45336;-75
2023/01/30 08:35:59;;;;;;;;;12.75;10.50;;;;;;;;4889796;28;46093;-76
2023/01/30 08:38:25;;;;;;;;;10.75;10.75;;;;;;;;4889871;28;45434;-76
2023/01/30 08:40:50;;;;;;;;;26.00;22.50;;;;;;;;4896923;28;45459;-75
2023/01/30 08:43:15;;;;;;;;;18.00;17.00;;;;;;;;4899834;28;45342;-76
2023/01/30 08:45:40;;;;;;;;;14.00;13.00;;;;;;;;4900892;28;45346;-76
2023/01/30 08:48:06;;;;;;;;;11.50;8.00;;;;;;;;4899722;29;46273;-76
2023/01/30 08:50:32;;;;;;;;;20.00;18.00;;;;;;;;4900550;28;45398;-76
2023/01/30 08:53:01;;;;;;;;;16.00;15.25;;;;;;;;4913571;28;45330;-76
2023/01/30 08:55:26;;;;;;;;;19.00;19.00;;;;;;;;4919655;28;45509;-76
2023/01/30 08:57:54;;;;;;;;;10.50;9.00;;;;;;;;4917394;28;45438;-75
2023/01/30 09:00:20;;;;;;;;;21.75;16.75;;;;;;;;4919830;28;45669;-75
2023/01/30 09:02:45;;;;;;;;;16.25;16.25;;;;;;;;4916611;28;45410;-75
2023/01/30 09:05:10;;;;;;;;;13.25;12.25;;;;;;;;4899243;28;45629;-75
2023/01/30 09:07:35;;;;;;;;;15.00;14.25;;;;;;;;4899556;29;45422;-75
2023/01/30 09:10:01;;;;;;;;;21.00;18.75;;;;;;;;4899000;28;45413;-75
2023/01/30 09:12:26;;;;;;;;;19.00;15.00;;;;;;;;4899848;28;45366;-76
2023/01/30 09:14:56;;;;;;;;;19.50;18.00;;;;;;;;4899238;29;45640;-76
2023/01/30 09:17:21;;;;;;;;;20.25;19.25;;;;;;;;4899858;28;46049;-76
2023/01/30 09:19:47;;;;;;;;;23.00;19.25;;;;;;;;4899830;28;45361;-75
2023/01/30 09:22:12;;;;;;;;;22.00;19.75;;;;;;;;4899518;28;45357;-76
2023/01/30 09:24:37;;;;;;;;;19.00;17.50;;;;;;;;4899394;28;45429;-75
2023/01/30 09:27:02;;;;;;;;;9.25;9.25;;;;;;;;4899716;28;45425;-75
2023/01/30 09:29:27;;;;;;;;;13.75;13.50;;;;;;;;4900132;29;45450;-75
2023/01/30 09:31:55;;;;;;;;;18.00;11.00;;;;;;;;4900647;28;45366;-76
2023/01/30 09:34:20;;;;;;;;;15.50;13.25;;;;;;;;4900030;29;45431;-76
2023/01/30 09:36:45;;;;;;;;;19.75;18.25;;;;;;;;4899920;28;46096;-77
2023/01/30 09:39:11;;;;;;;;;17.25;14.50;;;;;;;;4898153;29;45387;-77
2023/01/30 09:41:54;;;;;;;;;20.00;17.50;;;;;;;;4900103;28;45342;-76
2023/01/30 09:44:22;;;;;;;;;17.50;15.75;;;;;;;;4900349;28;45347;-76
2023/01/30 09:46:50;;;;;;;;;13.50;11.00;;;;;;;;4899635;28;46416;-75
2023/01/30 09:49:27;;;;;;;;;18.50;17.25;;;;;;;;4899654;28;45343;-77
2023/01/30 09:51:52;;;;;;;;;20.25;19.00;;;;;;;;4903513;28;45344;-77
2023/01/30 09:54:19;;;;;;;;;12.75;9.50;;;;;;;;4918645;28;45410;-76
2023/01/30 09:56:44;;;;;;;;;15.00;13.25;;;;;;;;4919147;28;45385;-76
2023/01/30 09:59:17;;;;;;;;;8.25;8.25;;;;;;;;4919185;28;45627;-76
2023/01/30 10:01:59;;;;;;;;;20.25;18.00;;;;;;;;4919322;28;45369;-76
2023/01/30 10:04:44;;;;;;;;;19.75;18.50;;;;;;;;4919039;28;45429;-76
2023/01/30 10:07:09;;;;;;;;;19.25;18.75;;;;;;;;4916923;28;46168;-76
2023/01/30 10:09:37;;;;;;;;;19.50;14.75;;;;;;;;4899519;28;45746;-76
2023/01/30 10:12:02;;;;;;;;;13.25;12.75;;;;;;;;4904016;28;45430;-76
2023/01/30 10:14:35;;;;;;;;;22.50;16.50;;;;;;;;4917969;28;45498;-75
2023/01/30 10:17:03;;;;;;;;;15.50;12.50;;;;;;;;4918184;28;46224;-75
2023/01/30 10:19:31;;;;;;;;;19.50;18.00;;;;;;;;4918627;28;45362;-75
2023/01/30 10:22:01;;;;;;;;;17.00;15.75;;;;;;;;4917405;28;45678;-76
2023/01/30 10:24:26;;;;;;;;;9.50;9.25;;;;;;;;4918822;28;45592;-76
2023/01/30 10:26:51;;;;;;;;;9.25;8.00;;;;;;;;4918886;28;45447;-75
2023/01/30 10:29:19;;;;;;;;;16.75;12.25;;;;;;;;4918657;28;45404;-75
2023/01/30 10:31:47;;;;;;;;;15.50;15.50;;;;;;;;4918477;28;45772;-76
2023/01/30 10:34:15;;;;;;;;;22.75;18.75;;;;;;;;4919248;28;45369;-75
2023/01/30 10:36:40;;;;;;;;;19.75;19.75;;;;;;;;4916956;28;47356;-75
2023/01/30 10:39:38;;;;;;;;;13.75;13.00;;;;;;;;4900858;28;45303;-75
2023/01/30 10:42:27;;;;;;;;;18.00;15.50;;;;;;;;4878205;29;45471;-75
2023/01/30 10:44:54;;;;;;;;;17.75;16.00;;;;;;;;4870120;29;45499;-76
2023/01/30 10:47:19;;;;;;;;;15.25;14.50;;;;;;;;4877427;29;47856;-76
2023/01/30 10:49:48;;;;;;;;;15.00;15.00;;;;;;;;4878047;29;45327;-76
2023/01/30 10:52:37;;;;;;;;;14.00;13.75;;;;;;;;4884322;29;45421;-75
2023/01/30 10:55:05;;;;;;;;;16.00;14.25;;;;;;;;4895976;29;45589;-76
2023/01/30 10:57:53;;;;;;;;;14.25;14.25;;;;;;;;4896444;29;46127;-76
2023/01/30 11:00:27;;;;;;;;;15.00;14.00;;;;;;;;4896753;29;45563;-76
2023/01/30 11:02:52;;;;;;;;;14.75;13.50;;;;;;;;4896937;29;45364;-75
2023/01/30 11:05:20;;;;;;;;;12.00;10.50;;;;;;;;4872734;29;45794;-76
2023/01/30 11:07:46;;;;;;;;;9.00;9.00;;;;;;;;4876908;29;46008;-75
2023/01/30 11:10:18;;;;;;;;;9.75;8.50;;;;;;;;4878340;29;45865;-76
2023/01/30 11:12:44;;;;;;;;;11.75;9.75;;;;;;;;4859572;29;45443;-75
2023/01/30 11:15:10;;;;;;;;;10.00;10.00;;;;;;;;4876918;29;45539;-76
2023/01/30 11:17:37;;;;;;;;;13.50;13.50;;;;;;;;4887322;28;46302;-78
2023/01/30 11:20:19;;;;;;;;;9.00;9.00;;;;;;;;4903202;28;45414;-77
2023/01/30 11:22:50;;;;;;;;;12.50;12.50;;;;;;;;4895330;29;45442;-77
2023/01/30 11:25:17;;;;;;;;;4.00;4.00;;;;;;;;4897084;28;45503;-77
2023/01/30 11:27:43;;;;;;;;;11.00;8.25;;;;;;;;4897942;28;45579;-77
2023/01/30 11:30:15;;;;;;;;;3.75;3.75;;;;;;;;4903583;28;45614;-77
2023/01/30 11:32:42;;;;;;;;;8.75;6.25;;;;;;;;4896485;28;45418;-77
2023/01/30 11:35:07;;;;;;;;;10.00;8.00;;;;;;;;4895871;28;45525;-78
2023/01/30 11:37:34;;;;;;;;;10.00;7.50;;;;;;;;4896044;28;46008;-76
2023/01/30 11:40:06;;;;;;;;;7.50;7.50;;;;;;;;4895975;28;45522;-78
2023/01/30 11:42:31;;;;;;;;;11.50;9.50;;;;;;;;4895254;28;45462;-77
2023/01/30 11:44:58;;;;;;;;;10.00;8.25;;;;;;;;4896061;28;45450;-78
2023/01/30 11:47:28;;;;;;;;;11.25;10.75;;;;;;;;4895269;29;47126;-77
2023/01/30 11:49:55;;;;;;;;;9.00;8.50;;;;;;;;4895509;28;45473;-77
2023/01/30 11:52:35;;;;;;;;;10.00;10.00;;;;;;;;4905673;28;45461;-77
2023/01/30 11:55:05;;;;;;;;;9.25;9.00;;;;;;;;4884069;29;45429;-78
2023/01/30 11:57:38;;;;;;;;;9.50;8.50;;;;;;;;4899130;28;45477;-77
2023/01/30 12:00:04;;;;;;;;;8.50;8.25;;;;;;;;4899733;28;45456;-77
2023/01/30 12:02:29;;;;;;;;;4.50;4.50;;;;;;;;4898635;28;45421;-76
2023/01/30 12:04:56;;;;;;;;;8.00;7.50;;;;;;;;4900185;28;45284;-76
2023/01/30 12:07:29;;;;;;;;;5.00;5.00;;;;;;;;4900501;28;46062;-76
2023/01/30 12:09:56;;;;;;;;;10.25;9.50;;;;;;;;4900049;29;45414;-77
2023/01/30 12:12:29;;;;;;;;;9.75;8.75;;;;;;;;4903496;28;45554;-77
2023/01/30 12:15:10;;;;;;;;;9.50;7.75;;;;;;;;4919180;28;45375;-76
2023/01/30 12:17:35;;;;;;;;;9.00;9.00;;;;;;;;4919093;28;46373;-76
2023/01/30 12:20:01;;;;;;;;;3.25;3.25;;;;;;;;4918880;28;45430;-76
2023/01/30 12:22:35;;;;;;;;;9.25;5.00;;;;;;;;4919214;28;45509;-77
2023/01/30 12:25:02;;;;;;;;;9.00;9.00;;;;;;;;4919410;28;45428;-76
2023/01/30 12:27:44;;;;;;;;;11.75;10.50;;;;;;;;4919076;28;45308;-77
2023/01/30 12:30:10;;;;;;;;;11.75;10.00;;;;;;;;4919166;28;45402;-76
2023/01/30 12:32:35;;;;;;;;;9.00;8.25;;;;;;;;4918000;28;45371;-75
2023/01/30 12:35:01;;;;;;;;;7.75;7.75;;;;;;;;4918966;28;45423;-77
2023/01/30 12:37:41;;;;;;;;;7.00;5.50;;;;;;;;4918625;28;45405;-76
2023/01/30 12:40:15;;;;;;;;;5.00;4.75;;;;;;;;4919025;28;45462;-77
2023/01/30 12:42:41;;;;;;;;;9.75;7.75;;;;;;;;4918678;28;45403;-76
2023/01/30 12:45:12;;;;;;;;;7.00;7.00;;;;;;;;4918692;28;45329;-77
2023/01/30 12:47:56;;;;;;;;;9.50;8.75;;;;;;;;4919742;28;46567;-76
2023/01/30 12:50:36;;;;;;;;;5.00;5.00;;;;;;;;4896922;29;45947;-76
2023/01/30 12:53:01;;;;;;;;;11.25;9.00;;;;;;;;4913958;28;45451;-77
2023/01/30 12:55:32;;;;;;;;;8.75;8.75;;;;;;;;4920018;28;45496;-76
2023/01/30 12:58:10;;;;;;;;;12.00;9.00;;;;;;;;4920027;28;45378;-77
2023/01/30 13:00:54;;;;;;;;;9.25;8.25;;;;;;;;4919964;28;45291;-76
2023/01/30 13:03:28;;;;;;;;;6.00;6.00;;;;;;;;4919166;28;45241;-77
2023/01/30 13:06:05;;;;;;;;;11.25;10.25;;;;;;;;4919347;28;45369;-77
2023/01/30 13:08:49;;;;;;;;;5.00;5.00;;;;;;;;4919686;28;45874;-76
2023/01/30 13:11:17;;;;;;;;;8.00;8.00;;;;;;;;4920042;28;45462;-74
2023/01/30 13:13:42;;;;;;;;;4.25;4.25;;;;;;;;4920105;28;45438;-75
2023/01/30 13:16:15;;;;;;;;;6.50;6.50;;;;;;;;4919993;28;45332;-75
2023/01/30 13:18:46;;;;;;;;;8.25;8.00;;;;;;;;4920270;28;46230;-76
2023/01/30 13:21:22;;;;;;;;;9.00;9.00;;;;;;;;4920221;28;45344;-77
2023/01/30 13:24:05;;;;;;;;;10.00;8.25;;;;;;;;4919958;28;45372;-76
2023/01/30 13:26:34;;;;;;;;;6.25;4.00;;;;;;;;4919880;28;45465;-76
2023/01/30 13:29:09;;;;;;;;;4.00;2.25;;;;;;;;4919422;28;45941;-76
2023/01/30 13:31:37;;;;;;;;;9.25;9.00;;;;;;;;4919124;28;45315;-74
2023/01/30 13:34:05;;;;;;;;;10.00;9.00;;;;;;;;4919516;28;45333;-75
2023/01/30 13:36:42;;;;;;;;;6.50;5.25;;;;;;;;4919626;28;45427;-75
2023/01/30 13:39:10;;;;;;;;;10.25;8.50;;;;;;;;4919116;28;45378;-75
2023/01/30 13:41:38;;;;;;;;;9.50;9.00;;;;;;;;4919090;28;45259;-75
2023/01/30 13:44:14;;;;;;;;;7.00;6.50;;;;;;;;4919366;28;45371;-76
2023/01/30 13:46:40;;;;;;;;;8.00;5.75;;;;;;;;4912196;28;45275;-75
2023/01/30 13:49:13;;;;;;;;;11.00;7.25;;;;;;;;4900056;29;45995;-75
2023/01/30 13:51:42;;;;;;;;;7.50;7.50;;;;;;;;4902133;28;45399;-75
2023/01/30 13:54:10;;;;;;;;;10.25;10.00;;;;;;;;4919391;28;45309;-75
2023/01/30 13:56:38;;;;;;;;;6.25;6.25;;;;;;;;4919365;28;45575;-75
2023/01/30 13:59:03;;;;;;;;;6.25;6.25;;;;;;;;4918934;28;45412;-76
2023/01/30 14:01:48;;;;;;;;;3.75;3.75;;;;;;;;4918745;28;45345;-75
2023/01/30 14:04:32;;;;;;;;;4.00;3.00;;;;;;;;4917661;28;45399;-74
2023/01/30 14:07:07;;;;;;;;;3.75;3.25;;;;;;;;4918647;28;45422;-75
2023/01/30 14:09:33;;;;;;;;;7.50;7.50;;;;;;;;4918535;28;46259;-75
2023/01/30 14:12:00;;;;;;;;;9.50;7.75;;;;;;;;4917371;28;45456;-76
2023/01/30 14:14:28;;;;;;;;;9.00;8.00;;;;;;;;4918724;28;45400;-76
2023/01/30 14:16:55;;;;;;;;;9.25;8.25;;;;;;;;4918672;28;45516;-75
2023/01/30 14:19:32;;;;;;;;;10.75;6.75;;;;;;;;4918821;28;46032;-76
2023/01/30 14:21:59;;;;;;;;;8.75;8.75;;;;;;;;4918563;28;45814;-76
2023/01/30 14:24:26;;;;;;;;;10.50;9.00;;;;;;;;4917607;28;45418;-76
2023/01/30 14:26:58;;;;;;;;;9.50;9.00;;;;;;;;4918566;28;45341;-76
2023/01/30 14:29:41;;;;;;;;;9.50;9.50;;;;;;;;4918541;28;47584;-76
2023/01/30 14:32:13;;;;;;;;;9.25;8.00;;;;;;;;4918641;28;45406;-77
2023/01/30 14:34:38;;;;;;;;;11.00;11.00;;;;;;;;4918526;28;45250;-76